This is the latest recevied weather packets stored in our database for station/object WC4PEM-6. If no packets are shown the sender has not sent any weather packets the latest 1 day(s).
| Time | Temp. | Humidity | Pressure | Rain* | Wind** | Luminosity | Snow |
|---|---|---|---|---|---|---|---|
| 1778081162 | 29.44° C | 54% | 1016.7 hPa | 0 mm | - | - | - |
| 1778080005 | 28.33° C | 64% | 1016.5 hPa | 0 mm | - | - | - |
| 1778079303 | 28.33° C | 65% | 1016.8 hPa | 0 mm | - | - | - |
| 1778079303 | 28.89° C | 64% | 1016.6 hPa | 0 mm | - | - | - |
| 1778078832 | 28.33° C | 65% | 1016.8 hPa | 0 mm | - | - | - |
| 1778077422 | 26.11° C | 75% | 1016.5 hPa | 0 mm | - | - | - |
| 1778077332 | 26.67° C | 72% | 1016.8 hPa | 0 mm | - | - | - |
| 1778077149 | 26.11° C | 75% | 1016.5 hPa | 0 mm | - | - | - |
| 1778076991 | 26.67° C | 73% | 1016.9 hPa | 0 mm | - | - | - |
| 1778075886 | 26.11° C | 73% | 1016.6 hPa | 0 mm | - | - | - |
| 1778073335 | 24.44° C | 82% | 1016.5 hPa | 0 mm | - | - | - |
| 1778069925 | 22.22° C | 87% | 1016.2 hPa | 0 mm | - | - | - |
| 1778068858 | 22.22° C | 88% | 1016.1 hPa | 0 mm | - | - | - |
| 1778067637 | 21.67° C | 90% | 1016 hPa | 0 mm | - | - | - |
| 1778067053 | 21.67° C | 90% | 1015.8 hPa | 0 mm | - | - | - |
| 1778062554 | 21.67° C | 74% | 1016.2 hPa | 0 mm | - | - | - |
| 1778059883 | 20.56° C | 87% | 1015.1 hPa | 0 mm | - | - | - |
| 1778059504 | 20.56° C | 86% | 1015.1 hPa | 0 mm | - | - | - |
| 1778059204 | 20.56° C | 87% | 1015.1 hPa | 0 mm | - | - | - |
| 1778058904 | 20.56° C | 87% | 1014.8 hPa | 0 mm | - | - | - |
| 1778058604 | 20° C | 88% | 1014.8 hPa | 0 mm | - | - | - |
| 1778058304 | 20° C | 89% | 1014.8 hPa | 0 mm | - | - | - |
| 1778057704 | 18.89° C | 86% | 1014.9 hPa | 0 mm | - | - | - |
| 1778057404 | 18.89° C | 85% | 1014.9 hPa | 0 mm | - | - | - |
| 1778057104 | 18.89° C | 84% | 1014.8 hPa | 0 mm | - | - | - |
* Rain latest hour (hover to see other rain measurements)
** Current wind speed in m/s (hover to see current wind gust speed)